createdAt,value
2018-07-13T00:01:59.429Z,99.90
2018-07-13T00:04:27.424Z,99.90
2018-07-13T00:06:56.372Z,99.90
2018-07-13T00:09:24.144Z,99.90
2018-07-13T00:11:51.829Z,99.90
2018-07-13T00:14:21.526Z,99.90
2018-07-13T00:16:50.599Z,99.90
2018-07-13T00:19:19.021Z,99.90
2018-07-13T00:21:46.906Z,99.90
2018-07-13T00:24:14.797Z,99.90
2018-07-13T00:26:42.608Z,99.90
2018-07-13T00:29:10.812Z,99.90
2018-07-13T00:31:39.643Z,99.90
2018-07-13T00:34:07.562Z,99.90
2018-07-13T00:36:36.641Z,99.90
2018-07-13T00:39:07.117Z,99.90
2018-07-13T00:41:36.023Z,99.90
2018-07-13T00:44:05.041Z,99.90
2018-07-13T00:46:33.097Z,99.90
2018-07-13T00:49:00.892Z,99.90
2018-07-13T00:51:29.303Z,99.90
2018-07-13T00:53:57.398Z,99.90
2018-07-13T00:56:25.900Z,99.90
2018-07-13T00:58:53.753Z,99.90
2018-07-13T01:01:21.576Z,99.90
2018-07-13T01:03:49.878Z,99.90
2018-07-13T01:06:18.384Z,99.90
2018-07-13T01:08:46.236Z,99.90
2018-07-13T01:11:14.040Z,99.90
2018-07-13T01:13:41.813Z,99.90
2018-07-13T01:16:09.920Z,99.90
2018-07-13T01:18:37.775Z,99.90
2018-07-13T01:21:05.810Z,99.90
2018-07-13T01:23:33.737Z,99.90
2018-07-13T01:28:29.241Z,99.90
2018-07-13T01:30:57.276Z,99.90
2018-07-13T01:33:25.054Z,99.90
2018-07-13T01:35:52.822Z,99.90
2018-07-13T01:38:20.559Z,99.90
2018-07-13T01:40:48.412Z,99.90
2018-07-13T01:43:16.404Z,99.90
2018-07-13T01:45:44.319Z,99.90
2018-07-13T01:48:12.342Z,99.90
2018-07-13T01:50:40.267Z,99.90
2018-07-13T01:55:35.824Z,99.90
2018-07-13T01:58:03.694Z,99.90
2018-07-13T02:00:31.438Z,99.90
2018-07-13T02:02:59.623Z,99.90
2018-07-13T02:05:27.439Z,99.90
2018-07-13T02:07:55.333Z,99.90
2018-07-13T02:10:23.204Z,99.90
2018-07-13T02:12:51.243Z,99.90
2018-07-13T02:15:19.110Z,99.90
2018-07-13T02:17:46.905Z,99.90
2018-07-13T02:20:15.012Z,99.90
2018-07-13T02:22:42.830Z,99.90
2018-07-13T02:27:38.676Z,99.90
2018-07-13T02:30:06.566Z,99.90
2018-07-13T02:32:34.604Z,99.90
2018-07-13T02:35:02.464Z,99.90
2018-07-13T02:37:30.257Z,99.90
2018-07-13T02:39:58.157Z,99.90
2018-07-13T02:42:26.029Z,99.90
2018-07-13T02:44:53.784Z,99.90
2018-07-13T02:47:21.548Z,99.90
2018-07-13T02:49:49.443Z,99.90
2018-07-13T02:54:45.020Z,99.90
2018-07-13T02:57:12.909Z,99.90
2018-07-13T02:59:40.741Z,99.90
2018-07-13T03:02:08.664Z,99.90
2018-07-13T03:04:36.746Z,99.90
2018-07-13T03:07:04.514Z,99.90
2018-07-13T03:12:00.050Z,99.90
2018-07-13T03:14:27.966Z,99.90
2018-07-13T03:16:55.753Z,99.90
2018-07-13T03:19:23.577Z,99.90
2018-07-13T03:21:51.821Z,99.90
2018-07-13T03:24:20.037Z,99.90
2018-07-13T03:26:48.038Z,99.90
2018-07-13T03:31:43.615Z,99.90
2018-07-13T03:34:11.393Z,99.90
2018-07-13T03:36:39.420Z,99.90
2018-07-13T03:39:07.196Z,99.90
2018-07-13T03:41:35.681Z,99.90
2018-07-13T03:44:03.573Z,99.90
2018-07-13T03:46:31.272Z,99.90
2018-07-13T03:48:59.188Z,99.90
2018-07-13T03:51:27.060Z,99.90
2018-07-13T03:53:54.889Z,99.90
2018-07-13T03:56:22.697Z,99.90
2018-07-13T03:58:50.555Z,99.90
2018-07-13T04:01:18.425Z,99.90
2018-07-13T04:03:46.224Z,99.90
2018-07-13T04:06:13.923Z,99.90
2018-07-13T04:08:41.554Z,99.90
2018-07-13T04:13:37.235Z,99.90
2018-07-13T04:16:05.317Z,99.90
2018-07-13T04:18:33.208Z,99.90
2018-07-13T04:21:01.162Z,99.90
2018-07-13T04:23:30.089Z,99.90
2018-07-13T04:28:25.695Z,99.90
2018-07-13T04:30:53.511Z,99.90
2018-07-13T04:33:21.450Z,99.90
2018-07-13T04:40:44.620Z,99.90
2018-07-13T04:43:12.623Z,99.90
2018-07-13T04:45:40.613Z,99.90
2018-07-13T04:48:08.416Z,99.90
2018-07-13T04:50:36.327Z,99.90
2018-07-13T04:53:04.217Z,99.90
2018-07-13T04:55:32.130Z,99.90
2018-07-13T05:00:28.101Z,99.90
2018-07-13T05:05:23.755Z,99.90
2018-07-13T05:07:52.144Z,99.90
2018-07-13T05:10:20.068Z,99.90
2018-07-13T05:12:47.756Z,99.90
2018-07-13T05:15:16.411Z,99.90
2018-07-13T05:17:44.141Z,99.90
2018-07-13T05:20:12.034Z,99.90
2018-07-13T05:22:39.861Z,99.90
2018-07-13T05:25:08.239Z,99.90
2018-07-13T05:27:36.342Z,99.90
2018-07-13T05:32:32.614Z,99.90
2018-07-13T05:35:00.552Z,99.90
2018-07-13T05:39:57.178Z,99.90
2018-07-13T05:42:25.784Z,99.90
2018-07-13T05:47:22.383Z,99.90
2018-07-13T05:49:50.382Z,99.90
2018-07-13T05:52:18.280Z,99.90
2018-07-13T05:54:46.191Z,99.90
2018-07-13T05:57:13.999Z,99.90
2018-07-13T06:02:09.998Z,99.90
2018-07-13T06:04:38.455Z,99.90
2018-07-13T06:07:06.238Z,99.90
2018-07-13T06:09:34.443Z,99.90
2018-07-13T06:12:02.429Z,99.90
2018-07-13T06:16:58.406Z,99.90
2018-07-13T06:19:26.344Z,99.90
2018-07-13T06:21:54.304Z,99.90
2018-07-13T06:26:50.416Z,99.90
2018-07-13T06:29:19.268Z,99.90
2018-07-13T06:31:47.022Z,99.90
2018-07-13T06:34:15.223Z,99.90
2018-07-13T06:36:43.110Z,99.90
2018-07-13T06:39:12.025Z,99.90
2018-07-13T06:41:40.044Z,99.90
2018-07-13T06:44:08.122Z,99.90
2018-07-13T06:46:46.033Z,99.90
2018-07-13T06:49:14.441Z,99.90
2018-07-13T06:54:10.865Z,99.90
2018-07-13T06:56:38.875Z,99.90
2018-07-13T06:59:11.999Z,99.90
2018-07-13T07:01:39.979Z,99.50
2018-07-13T07:04:25.953Z,96.90
2018-07-13T07:06:54.766Z,95.40
2018-07-13T07:09:23.278Z,94.90
2018-07-13T07:13:00.764Z,93.90
2018-07-13T07:17:57.015Z,93.80
2018-07-13T07:22:52.486Z,96.10
2018-07-13T07:25:20.430Z,95.60
2018-07-13T07:27:48.299Z,94.20
2018-07-13T07:30:16.272Z,93.50
2018-07-13T07:32:44.909Z,93.80
2018-07-13T07:35:12.799Z,93.20
2018-07-13T07:37:40.646Z,93.70
2018-07-13T07:40:08.712Z,93.20
2018-07-13T07:45:05.042Z,93.90
2018-07-13T07:47:33.307Z,93.20
2018-07-13T07:50:01.278Z,92.50
2018-07-13T07:52:29.159Z,93.40
2018-07-13T07:54:56.979Z,93.60
2018-07-13T07:57:25.209Z,93.30
2018-07-13T07:59:53.115Z,93.10
2018-07-13T08:02:20.886Z,91.90
2018-07-13T08:04:49.162Z,92.90
2018-07-13T08:07:17.520Z,93.50
2018-07-13T08:12:12.793Z,92.70
2018-07-13T08:14:41.443Z,93.20
2018-07-13T08:17:09.418Z,93.30
2018-07-13T08:19:37.902Z,93.80
2018-07-13T08:22:11.260Z,93.60
2018-07-13T08:24:40.062Z,95.00
2018-07-13T08:27:10.663Z,92.80
2018-07-13T08:29:39.897Z,93.90
2018-07-13T08:32:07.772Z,91.60
2018-07-13T08:34:35.791Z,88.70
2018-07-13T08:37:03.617Z,89.90
2018-07-13T08:39:31.451Z,81.20
2018-07-13T08:41:59.201Z,79.60
2018-07-13T08:44:27.311Z,79.60
2018-07-13T08:46:55.139Z,78.50
2018-07-13T08:49:23.077Z,80.00
2018-07-13T08:51:51.212Z,76.30
2018-07-13T08:54:19.573Z,80.30
2018-07-13T08:56:47.494Z,78.00
2018-07-13T08:59:15.400Z,75.80
2018-07-13T09:01:43.417Z,78.10
2018-07-13T09:04:11.162Z,81.30
2018-07-13T09:06:39.035Z,79.00
2018-07-13T09:09:11.985Z,77.40
2018-07-13T09:11:40.057Z,70.40
2018-07-13T09:14:08.052Z,71.30
2018-07-13T09:16:37.655Z,73.20
2018-07-13T09:19:06.093Z,73.60
2018-07-13T09:24:02.186Z,79.60
2018-07-13T09:26:30.196Z,72.30
2018-07-13T09:31:26.088Z,70.40
2018-07-13T09:33:53.828Z,67.10
2018-07-13T09:36:21.700Z,70.50
2018-07-13T09:38:49.522Z,72.00
2018-07-13T09:43:45.162Z,68.90
2018-07-13T09:48:42.046Z,71.30
2018-07-13T09:51:09.954Z,70.10
2018-07-13T09:53:38.550Z,65.00
2018-07-13T09:56:06.992Z,66.70
2018-07-13T09:58:36.395Z,66.60
2018-07-13T10:01:10.038Z,66.20
2018-07-13T10:03:38.039Z,67.30
2018-07-13T10:06:06.539Z,70.10
2018-07-13T10:08:34.991Z,74.00
2018-07-13T10:11:03.416Z,68.60
2018-07-13T10:13:32.164Z,69.20
2018-07-13T10:16:01.234Z,63.40
2018-07-13T10:18:29.869Z,63.60
2018-07-13T10:20:59.781Z,64.90
2018-07-13T10:23:28.266Z,66.80
2018-07-13T10:26:03.191Z,64.20
2018-07-13T10:28:35.913Z,68.80
2018-07-13T10:31:07.296Z,62.90
2018-07-13T10:33:38.837Z,66.80
2018-07-13T10:36:10.077Z,63.90
2018-07-13T10:38:37.961Z,62.60
2018-07-13T10:41:05.896Z,64.70
2018-07-13T10:46:01.642Z,64.40
2018-07-13T10:48:29.536Z,59.90
2018-07-13T10:50:59.303Z,62.30
2018-07-13T10:53:27.501Z,63.70
2018-07-13T10:58:23.050Z,63.90
2018-07-13T11:00:51.095Z,64.30
2018-07-13T11:05:46.763Z,68.10
2018-07-13T11:08:14.593Z,65.80
2018-07-13T11:15:40.754Z,66.40
2018-07-13T11:20:36.586Z,62.60
2018-07-13T11:25:32.525Z,64.80
2018-07-13T11:30:28.755Z,66.30
2018-07-13T11:32:57.338Z,63.50
2018-07-13T11:37:53.334Z,65.10
2018-07-13T11:40:21.203Z,66.30
2018-07-13T11:42:49.233Z,66.00
2018-07-13T11:45:17.067Z,62.20
2018-07-13T11:47:45.695Z,62.90
2018-07-13T11:50:13.816Z,61.70
2018-07-13T11:52:41.631Z,65.60
2018-07-13T11:55:09.524Z,63.10
2018-07-13T11:57:37.680Z,61.40
2018-07-13T12:00:05.975Z,62.00
2018-07-13T12:02:33.849Z,63.30
2018-07-13T12:05:02.069Z,62.10
2018-07-13T12:07:29.950Z,61.80
2018-07-13T12:09:58.253Z,60.40
2018-07-13T12:12:26.161Z,60.30
2018-07-13T12:14:54.107Z,61.10
2018-07-13T12:17:22.654Z,59.70
2018-07-13T12:19:50.904Z,60.30
2018-07-13T12:22:19.764Z,61.10
2018-07-13T12:24:49.010Z,62.60
2018-07-13T12:27:16.919Z,62.30
2018-07-13T12:29:47.377Z,61.10
2018-07-13T12:34:44.708Z,64.80
2018-07-13T12:37:13.707Z,63.60
2018-07-13T12:39:44.339Z,63.60
2018-07-13T12:42:12.704Z,62.40
2018-07-13T12:44:41.372Z,63.40
2018-07-13T12:47:10.488Z,63.10
2018-07-13T12:49:38.474Z,61.60
2018-07-13T12:52:06.361Z,62.30
2018-07-13T12:59:30.114Z,62.40
2018-07-13T13:01:58.069Z,60.90
2018-07-13T13:04:26.177Z,62.50
2018-07-13T13:06:53.933Z,61.90
2018-07-13T13:09:21.708Z,64.50
2018-07-13T13:11:49.666Z,61.70
2018-07-13T13:14:17.475Z,61.20
2018-07-13T13:19:13.189Z,60.90
2018-07-13T13:21:41.728Z,60.70
2018-07-13T13:24:09.493Z,64.00
2018-07-13T13:26:37.919Z,63.00
2018-07-13T13:29:05.908Z,65.90
2018-07-13T13:34:02.486Z,61.80
2018-07-13T13:36:30.376Z,61.00
2018-07-13T13:38:58.277Z,61.50
2018-07-13T13:41:25.989Z,61.90
2018-07-13T13:43:53.725Z,65.30
2018-07-13T13:46:21.597Z,63.30
2018-07-13T13:48:49.351Z,62.70
2018-07-13T13:51:17.200Z,63.40
2018-07-13T13:53:45.099Z,60.20
2018-07-13T13:56:13.166Z,60.30
2018-07-13T13:58:40.980Z,61.40
2018-07-13T14:01:09.448Z,62.10
2018-07-13T14:03:37.784Z,61.80
2018-07-13T14:06:08.830Z,63.20
2018-07-13T14:08:36.840Z,63.90
2018-07-13T14:11:05.041Z,63.10
2018-07-13T14:13:33.933Z,62.90
2018-07-13T14:16:02.747Z,65.50
2018-07-13T14:18:31.850Z,65.80
2018-07-13T14:21:00.048Z,64.10
2018-07-13T14:23:29.103Z,62.60
2018-07-13T14:25:57.313Z,65.00
2018-07-13T14:28:25.768Z,62.30
2018-07-13T14:30:53.933Z,61.60
2018-07-13T14:33:21.844Z,60.80
2018-07-13T14:35:50.479Z,59.60
2018-07-13T14:38:18.413Z,61.30
2018-07-13T14:40:46.153Z,59.70
2018-07-13T14:43:14.005Z,59.30
2018-07-13T14:45:41.962Z,58.80
2018-07-13T14:48:09.793Z,59.50
2018-07-13T14:53:05.842Z,59.20
2018-07-13T14:58:01.623Z,61.40
2018-07-13T15:00:29.460Z,60.60
2018-07-13T15:02:57.390Z,58.90
2018-07-13T15:05:25.289Z,58.40
2018-07-13T15:07:53.361Z,60.30
2018-07-13T15:10:21.258Z,59.50
2018-07-13T15:12:49.116Z,59.00
2018-07-13T15:15:17.392Z,59.50
2018-07-13T15:17:45.640Z,58.50
2018-07-13T15:22:41.241Z,59.20
2018-07-13T15:25:09.073Z,59.30
2018-07-13T15:27:37.033Z,58.00
2018-07-13T15:30:05.086Z,58.30
2018-07-13T15:32:34.795Z,58.10
2018-07-13T15:35:02.541Z,58.80
2018-07-13T15:37:30.372Z,58.20
2018-07-13T15:39:58.212Z,59.50
2018-07-13T15:42:25.999Z,57.90
2018-07-13T15:44:53.905Z,58.20
2018-07-13T15:47:21.723Z,58.30
2018-07-13T15:49:49.619Z,57.80
2018-07-13T15:54:45.781Z,57.00
2018-07-13T15:57:13.769Z,58.10
2018-07-13T15:59:41.981Z,58.20
2018-07-13T16:02:09.832Z,57.10
2018-07-13T16:04:37.874Z,56.50
2018-07-13T16:07:07.082Z,58.10
2018-07-13T16:09:34.902Z,57.00
2018-07-13T16:12:03.033Z,57.70
2018-07-13T16:14:30.901Z,58.00
2018-07-13T16:16:59.206Z,59.30
2018-07-13T16:19:27.112Z,57.30
2018-07-13T16:21:55.025Z,58.10
2018-07-13T16:24:23.211Z,57.00
2018-07-13T16:26:51.226Z,57.60
2018-07-13T16:29:19.530Z,57.60
2018-07-13T16:31:47.651Z,57.50
2018-07-13T16:34:15.588Z,58.70
2018-07-13T16:36:43.686Z,58.50
2018-07-13T16:41:40.920Z,58.90
2018-07-13T16:44:09.414Z,59.40
2018-07-13T16:46:38.977Z,58.50
2018-07-13T16:49:07.956Z,59.50
2018-07-13T16:51:38.142Z,58.50
2018-07-13T16:59:02.571Z,59.10
2018-07-13T17:06:25.985Z,58.50
2018-07-13T17:08:54.025Z,59.10
2018-07-13T17:11:21.952Z,59.20
2018-07-13T17:13:49.937Z,60.10
2018-07-13T17:16:18.552Z,59.00
2018-07-13T17:21:14.200Z,59.30
2018-07-13T17:23:42.008Z,60.10
2018-07-13T17:26:10.437Z,60.10
2018-07-13T17:28:38.216Z,61.00
2018-07-13T17:31:06.683Z,62.20
2018-07-13T17:33:34.804Z,61.00
2018-07-13T17:36:02.764Z,60.50
2018-07-13T17:38:30.680Z,60.40
2018-07-13T17:40:59.481Z,61.20
2018-07-13T17:43:27.581Z,62.00
2018-07-13T17:45:55.312Z,60.70
2018-07-13T17:48:23.350Z,65.50
2018-07-13T17:50:51.171Z,63.50
2018-07-13T17:53:19.384Z,64.80
2018-07-13T17:55:47.166Z,65.90
2018-07-13T17:58:15.067Z,68.30
2018-07-13T18:00:42.985Z,67.30
2018-07-13T18:03:11.060Z,67.00
2018-07-13T18:05:38.845Z,69.90
2018-07-13T18:10:34.652Z,70.10
2018-07-13T18:13:02.614Z,66.30
2018-07-13T18:17:59.237Z,71.00
2018-07-13T18:20:27.654Z,71.80
2018-07-13T18:22:55.577Z,74.70
2018-07-13T18:25:23.793Z,75.20
2018-07-13T18:27:51.837Z,78.00
2018-07-13T18:30:20.064Z,79.00
2018-07-13T18:35:15.744Z,81.20
2018-07-13T18:37:43.897Z,80.30
2018-07-13T18:40:11.820Z,81.10
2018-07-13T18:42:40.558Z,82.50
2018-07-13T18:45:08.423Z,82.70
2018-07-13T18:47:36.394Z,83.70
2018-07-13T18:50:04.190Z,84.10
2018-07-13T18:52:32.096Z,83.90
2018-07-13T18:57:27.582Z,85.50
2018-07-13T18:59:55.464Z,86.00
2018-07-13T19:04:51.888Z,87.20
2018-07-13T19:07:19.867Z,87.50
2018-07-13T19:09:47.933Z,88.60
2018-07-13T19:12:16.133Z,89.70
2018-07-13T19:14:44.601Z,90.10
2018-07-13T19:17:14.682Z,90.70
2018-07-13T19:19:42.764Z,91.10
2018-07-13T19:22:10.946Z,91.40
2018-07-13T19:24:39.444Z,91.90
2018-07-13T19:27:07.390Z,92.10
2018-07-13T19:29:35.285Z,92.50
2018-07-13T19:32:03.226Z,92.70
2018-07-13T19:34:31.970Z,93.40
2018-07-13T19:39:28.312Z,94.80
2018-07-13T19:44:24.782Z,96.00
2018-07-13T19:46:52.740Z,96.30
2018-07-13T19:49:20.441Z,97.10
2018-07-13T19:51:48.510Z,97.70
2018-07-13T19:54:17.877Z,98.00
2018-07-13T19:56:45.829Z,98.90
2018-07-13T20:01:41.899Z,99.80
2018-07-13T20:04:09.708Z,99.90
2018-07-13T20:06:37.618Z,99.90
2018-07-13T20:09:06.773Z,99.90
2018-07-13T20:11:35.478Z,99.90
2018-07-13T20:14:03.388Z,99.90
2018-07-13T20:16:31.725Z,99.90
2018-07-13T20:21:27.597Z,99.90
2018-07-13T20:23:56.275Z,99.90
2018-07-13T20:26:24.283Z,99.90
2018-07-13T20:28:52.305Z,99.90
2018-07-13T20:31:20.296Z,99.90
2018-07-13T20:33:48.209Z,99.90
2018-07-13T20:36:16.772Z,99.90
2018-07-13T20:38:44.958Z,99.90
2018-07-13T20:41:12.886Z,99.90
2018-07-13T20:43:40.979Z,99.90
2018-07-13T20:46:08.793Z,99.90
2018-07-13T20:48:37.229Z,99.90
2018-07-13T20:51:05.137Z,99.90
2018-07-13T20:53:32.978Z,99.90
2018-07-13T20:58:30.144Z,99.90
2018-07-13T21:00:58.092Z,99.90
2018-07-13T21:03:25.927Z,99.90
2018-07-13T21:05:53.615Z,99.90
2018-07-13T21:08:21.756Z,99.90
2018-07-13T21:10:49.977Z,99.90
2018-07-13T21:13:18.848Z,99.90
2018-07-13T21:15:46.831Z,99.90
2018-07-13T21:18:14.749Z,99.90
2018-07-13T21:20:43.465Z,99.90
2018-07-13T21:23:11.363Z,99.90
2018-07-13T21:25:39.396Z,99.90
2018-07-13T21:28:07.666Z,99.90
2018-07-13T21:30:35.605Z,99.90
2018-07-13T21:33:03.777Z,99.90
2018-07-13T21:35:31.768Z,99.90
2018-07-13T21:37:59.703Z,99.90
2018-07-13T21:40:27.779Z,99.90
2018-07-13T21:50:19.020Z,99.90
2018-07-13T21:55:16.040Z,99.90
2018-07-13T21:57:43.992Z,99.90
2018-07-13T22:00:12.350Z,99.90
2018-07-13T22:02:40.319Z,99.90
2018-07-13T22:05:08.294Z,99.90
2018-07-13T22:07:36.417Z,99.90
2018-07-13T22:10:10.738Z,99.90
2018-07-13T22:12:38.800Z,99.90
2018-07-13T22:15:07.192Z,99.90
2018-07-13T22:17:35.312Z,99.90
2018-07-13T22:20:03.299Z,99.90
2018-07-13T22:22:31.057Z,99.90
2018-07-13T22:24:59.069Z,99.90
2018-07-13T22:27:27.305Z,99.90
2018-07-13T22:29:55.047Z,99.90
2018-07-13T22:32:23.025Z,99.90
2018-07-13T22:34:51.458Z,99.90
2018-07-13T22:39:47.582Z,99.90
2018-07-13T22:42:16.885Z,99.90
2018-07-13T22:44:45.513Z,99.90
2018-07-13T22:47:14.033Z,99.90
2018-07-13T22:49:42.006Z,99.90
2018-07-13T22:52:10.434Z,99.90
2018-07-13T22:54:39.122Z,99.90
2018-07-13T22:57:07.053Z,99.90
2018-07-13T22:59:35.297Z,99.90
2018-07-13T23:02:03.694Z,99.90
2018-07-13T23:04:31.879Z,99.90
2018-07-13T23:07:00.790Z,99.90
2018-07-13T23:09:29.253Z,99.90
2018-07-13T23:11:57.510Z,99.90
2018-07-13T23:14:26.738Z,99.90
2018-07-13T23:16:54.777Z,99.90
2018-07-13T23:19:23.613Z,99.90
2018-07-13T23:21:51.897Z,99.90
2018-07-13T23:24:20.469Z,99.90
2018-07-13T23:26:48.571Z,99.90
2018-07-13T23:29:16.376Z,99.90
2018-07-13T23:31:44.266Z,99.90
2018-07-13T23:34:12.904Z,99.90
2018-07-13T23:36:40.895Z,99.90
2018-07-13T23:39:09.662Z,99.90
2018-07-13T23:41:38.972Z,99.90
2018-07-13T23:44:08.254Z,99.90
2018-07-13T23:46:37.157Z,99.90
2018-07-13T23:49:04.966Z,99.90
2018-07-13T23:51:32.785Z,99.90
2018-07-13T23:54:00.589Z,99.90
2018-07-13T23:56:28.555Z,99.90
2018-07-13T23:58:56.444Z,99.90
